Wetterstation Vordersexau
Wetterdaten: Woche 26.05.14 - 01.06.14 (KW22)
Datum Zeit Temp. A. Feuchte A. Luftdruck Regen Wind Richtung Taupunkt Windchill Windben
26.05.2014 00:00 13,2 C 78 % 986,3 hPa 0,0 l/m 0,0 km/h O 9,4 C 13,2 C 0,0 km/h
26.05.2014 01:00 14,9 C 77 % 987,3 hPa 0,0 l/m 11,9 km/h W 10,9 C 12,2 C 11,9 km/h
26.05.2014 02:00 13,9 C 77 % 987,3 hPa 0,0 l/m 0,0 km/h O-NO 9,9 C 13,9 C 0,0 km/h
26.05.2014 03:00 13,1 C 80 % 987,0 hPa 0,0 l/m 0,0 km/h O-NO 9,7 C 13,1 C 0,0 km/h
26.05.2014 04:00 12,7 C 82 % 987,0 hPa 0,0 l/m 0,0 km/h O-NO 9,7 C 12,7 C 0,0 km/h
26.05.2014 05:00 12,4 C 83 % 986,9 hPa 0,0 l/m 0,0 km/h O-NO 9,6 C 12,4 C 0,0 km/h
26.05.2014 06:00 12,9 C 85 % 986,9 hPa 0,0 l/m 0,0 km/h O-NO 10,4 C 12,9 C 0,0 km/h
26.05.2014 07:00 15,1 C 84 % 986,7 hPa 0,0 l/m 0,0 km/h W 12,4 C 15,1 C 0,0 km/h
26.05.2014 08:00 17,5 C 75 % 986,5 hPa 0,0 l/m 5,2 km/h W-NW 13,0 C 17,5 C 2,9 km/h
26.05.2014 09:00 15,9 C 79 % 986,7 hPa 0,0 l/m 0,0 km/h S-SW 12,3 C 15,9 C 0,0 km/h
26.05.2014 10:00 18,1 C 73 % 986,6 hPa 0,0 l/m 0,0 km/h SO 13,2 C 18,1 C 0,0 km/h
26.05.2014 11:00 20,2 C 68 % 986,4 hPa 0,0 l/m 0,0 km/h SO 14,1 C 20,2 C 0,0 km/h
26.05.2014 12:00 18,9 C 71 % 985,8 hPa 0,0 l/m 0,0 km/h W 13,5 C 18,9 C 0,0 km/h
26.05.2014 13:00 21,1 C 66 % 985,8 hPa 0,0 l/m 13,0 km/h W-SW 14,5 C 19,0 C 7,2 km/h
26.05.2014 14:00 20,8 C 63 % 985,2 hPa 0,0 l/m 0,0 km/h W-SW 13,5 C 20,8 C 0,0 km/h
26.05.2014 15:00 21,4 C 66 % 984,6 hPa 0,0 l/m 0,0 km/h W-SW 14,8 C 21,4 C 0,0 km/h
26.05.2014 16:00 21,9 C 62 % 984,3 hPa 0,0 l/m 11,0 km/h W 14,3 C 20,5 C 6,1 km/h
26.05.2014 17:00 19,3 C 68 % 983,7 hPa 0,0 l/m 16,2 km/h S-SW 13,2 C 16,1 C 9,0 km/h
26.05.2014 18:00 20,1 C 68 % 983,4 hPa 0,0 l/m 3,2 km/h W 14,0 C 20,1 C 1,8 km/h
26.05.2014 19:00 18,6 C 68 % 982,9 hPa 0,0 l/m 0,0 km/h W 12,6 C 18,6 C 0,0 km/h
26.05.2014 20:00 17,4 C 72 % 982,7 hPa 0,0 l/m 0,0 km/h S-SW 12,3 C 17,4 C 0,0 km/h
26.05.2014 21:00 15,3 C 78 % 982,5 hPa 0,0 l/m 0,0 km/h S-SW 11,5 C 15,3 C 0,0 km/h
26.05.2014 22:00 14,1 C 81 % 983,0 hPa 0,0 l/m 0,0 km/h S-SO 10,9 C 14,1 C 0,0 km/h
26.05.2014 23:00 12,4 C 84 % 983,1 hPa 0,0 l/m 0,0 km/h S-SO 9,8 C 12,4 C 0,0 km/h
27.05.2014 00:00 11,8 C 85 % 982,9 hPa 0,0 l/m 0,0 km/h S-SO 9,4 C 11,8 C 0,0 km/h
27.05.2014 01:00 10,8 C 85 % 982,8 hPa 0,0 l/m 0,0 km/h SO 8,4 C 10,8 C 0,0 km/h
27.05.2014 02:00 10,9 C 85 % 982,6 hPa 0,0 l/m 0,0 km/h SO 8,5 C 10,9 C 0,0 km/h
27.05.2014 03:00 11,3 C 84 % 982,4 hPa 0,0 l/m 0,0 km/h SO 8,7 C 11,3 C 0,0 km/h
27.05.2014 04:00 11,6 C 84 % 982,3 hPa 0,0 l/m 0,0 km/h W-SW 9,0 C 11,6 C 0,0 km/h
27.05.2014 05:00 11,8 C 84 % 982,3 hPa 0,0 l/m 0,0 km/h SW 9,2 C 11,8 C 0,0 km/h
27.05.2014 06:00 12,5 C 83 % 982,6 hPa 0,0 l/m 0,0 km/h W 9,7 C 12,5 C 0,0 km/h
27.05.2014 07:00 13,1 C 83 % 983,1 hPa 0,0 l/m 0,0 km/h W 10,3 C 13,1 C 0,0 km/h
27.05.2014 08:00 13,8 C 84 % 983,1 hPa 0,0 l/m 0,0 km/h W-SW 11,1 C 13,8 C 0,0 km/h
27.05.2014 09:00 14,5 C 85 % 983,4 hPa 0,0 l/m 0,0 km/h W 12,0 C 14,5 C 0,0 km/h
27.05.2014 10:00 14,8 C 84 % 983,8 hPa 0,0 l/m 2,6 km/h W 12,1 C 14,8 C 1,4 km/h
27.05.2014 11:00 14,2 C 85 % 984,0 hPa 0,0 l/m 0,0 km/h N-NO 11,7 C 14,2 C 0,0 km/h
27.05.2014 12:00 15,3 C 83 % 984,3 hPa 0,0 l/m 0,0 km/h S 12,4 C 15,3 C 0,0 km/h
27.05.2014 13:00 16,9 C 77 % 984,1 hPa 0,0 l/m 0,0 km/h S-SO 12,8 C 16,9 C 0,0 km/h
27.05.2014 14:00 16,9 C 76 % 984,1 hPa 0,0 l/m 0,0 km/h W-NW 12,6 C 16,9 C 0,0 km/h
27.05.2014 15:00 19,3 C 70 % 984,1 hPa 0,0 l/m 0,0 km/h W-NW 13,7 C 19,3 C 0,0 km/h
27.05.2014 16:00 18,2 C 64 % 984,0 hPa 0,0 l/m 20,7 km/h W-NW 11,3 C 13,7 C 11,5 km/h
27.05.2014 17:00 17,2 C 66 % 984,2 hPa 0,0 l/m 1,9 km/h W 10,8 C 17,2 C 1,1 km/h
27.05.2014 18:00 16,2 C 70 % 984,1 hPa 0,0 l/m 1,9 km/h NW 10,7 C 16,2 C 1,1 km/h
27.05.2014 19:00 15,5 C 70 % 984,4 hPa 0,0 l/m 0,0 km/h W-NW 10,1 C 15,5 C 0,0 km/h
27.05.2014 20:00 14,8 C 73 % 984,9 hPa 0,0 l/m 0,0 km/h W-SW 10,0 C 14,8 C 0,0 km/h
27.05.2014 21:00 13,9 C 78 % 985,4 hPa 0,0 l/m 2,2 km/h W-SW 10,1 C 13,9 C 2,2 km/h
27.05.2014 22:00 13,4 C 80 % 985,6 hPa 0,0 l/m 7,9 km/h W-SW 10,0 C 12,5 C 7,9 km/h
27.05.2014 23:00 13,0 C 81 % 985,7 hPa 0,0 l/m 0,0 km/h S-SW 9,8 C 13,0 C 0,0 km/h
28.05.2014 00:00 12,9 C 80 % 985,7 hPa 0,0 l/m 0,0 km/h S 9,5 C 12,9 C 0,0 km/h
28.05.2014 01:00 13,1 C 81 % 985,7 hPa 0,0 l/m 0,0 km/h S-SW 9,9 C 13,1 C 0,0 km/h
28.05.2014 02:00 12,5 C 81 % 985,2 hPa 0,0 l/m 0,0 km/h NW 9,3 C 12,5 C 0,0 km/h
28.05.2014 03:00 10,5 C 84 % 984,5 hPa 0,0 l/m 0,0 km/h O 7,9 C 10,5 C 0,0 km/h
28.05.2014 04:00 9,8 C 85 % 984,2 hPa 0,0 l/m 0,0 km/h O-SO 7,4 C 9,8 C 0,0 km/h
28.05.2014 05:00 8,4 C 85 % 984,1 hPa 0,0 l/m 0,0 km/h O-SO 6,0 C 8,4 C 0,0 km/h
28.05.2014 06:00 8,6 C 85 % 984,1 hPa 0,0 l/m 0,0 km/h O-SO 6,2 C 8,6 C 0,0 km/h
28.05.2014 07:00 10,5 C 83 % 984,3 hPa 0,0 l/m 0,0 km/h SO 7,7 C 10,5 C 0,0 km/h
28.05.2014 08:00 13,6 C 84 % 984,4 hPa 0,0 l/m 0,0 km/h S 10,9 C 13,6 C 0,0 km/h
28.05.2014 09:00 17,1 C 77 % 984,6 hPa 0,0 l/m 0,0 km/h W-SW 13,0 C 17,1 C 0,0 km/h
28.05.2014 10:00 22,1 C 60 % 984,5 hPa 0,0 l/m 0,6 km/h N 14,0 C 22,1 C 0,4 km/h
28.05.2014 11:00 20,2 C 57 % 984,3 hPa 0,0 l/m 0,0 km/h W 11,4 C 20,2 C 0,0 km/h
28.05.2014 12:00 17,9 C 64 % 984,1 hPa 0,0 l/m 0,0 km/h SW 11,0 C 17,9 C 0,0 km/h
28.05.2014 13:00 19,9 C 60 % 984,0 hPa 0,0 l/m 12,3 km/h SO 11,9 C 17,8 C 6,8 km/h
28.05.2014 14:00 20,4 C 60 % 983,8 hPa 0,0 l/m 2,6 km/h SO 12,4 C 20,4 C 1,4 km/h
28.05.2014 15:00 21,3 C 55 % 983,3 hPa 0,0 l/m 3,2 km/h S-SO 11,9 C 21,3 C 1,8 km/h
28.05.2014 16:00 22,6 C 50 % 982,8 hPa 0,0 l/m 12,3 km/h O-SO 11,6 C 21,0 C 6,8 km/h
28.05.2014 17:00 23,9 C 47 % 982,6 hPa 0,0 l/m 0,0 km/h NW 11,9 C 23,9 C 0,0 km/h
28.05.2014 18:00 20,3 C 54 % 982,5 hPa 0,0 l/m 0,0 km/h N-NO 10,7 C 20,3 C 0,0 km/h
28.05.2014 19:00 20,5 C 54 % 982,9 hPa 0,0 l/m 0,0 km/h N 10,9 C 20,5 C 0,0 km/h
28.05.2014 20:00 18,1 C 64 % 983,0 hPa 0,0 l/m 0,0 km/h O 11,2 C 18,1 C 0,0 km/h
28.05.2014 21:00 14,2 C 73 % 983,5 hPa 0,0 l/m 0,0 km/h O 9,4 C 14,2 C 0,0 km/h
28.05.2014 22:00 11,6 C 78 % 984,2 hPa 0,0 l/m 0,0 km/h O-SO 7,9 C 11,6 C 0,0 km/h
28.05.2014 23:00 9,8 C 81 % 984,4 hPa 0,0 l/m 0,0 km/h SO 6,7 C 9,8 C 0,0 km/h
29.05.2014 00:00 9,8 C 83 % 984,6 hPa 0,0 l/m 0,0 km/h SO 7,1 C 9,8 C 0,0 km/h
29.05.2014 01:00 10,3 C 84 % 984,5 hPa 0,0 l/m 0,0 km/h N-NO 7,7 C 10,3 C 0,0 km/h
29.05.2014 02:00 9,5 C 84 % 984,7 hPa 0,0 l/m 0,0 km/h SO 6,9 C 9,5 C 0,0 km/h
29.05.2014 03:00 8,8 C 85 % 984,6 hPa 0,0 l/m 0,0 km/h O-SO 6,4 C 8,8 C 0,0 km/h
29.05.2014 04:00 8,1 C 85 % 985,0 hPa 0,0 l/m 0,0 km/h O-SO 5,7 C 8,1 C 0,0 km/h
29.05.2014 05:00 7,8 C 85 % 985,0 hPa 0,0 l/m 0,0 km/h SO 5,4 C 7,8 C 0,0 km/h
29.05.2014 06:00 7,8 C 85 % 985,3 hPa 0,0 l/m 0,0 km/h SO 5,4 C 7,8 C 0,0 km/h
29.05.2014 07:00 9,9 C 83 % 985,4 hPa 0,0 l/m 0,0 km/h SO 7,2 C 9,9 C 0,0 km/h
29.05.2014 08:00 18,1 C 64 % 985,7 hPa 0,0 l/m 0,0 km/h W 11,2 C 18,1 C 0,0 km/h
29.05.2014 09:00 24,0 C 51 % 985,7 hPa 0,0 l/m 0,0 km/h W-SW 13,2 C 24,0 C 0,0 km/h
29.05.2014 10:00 24,8 C 50 % 985,5 hPa 0,0 l/m 0,0 km/h W 13,7 C 24,8 C 0,0 km/h
29.05.2014 11:00 26,1 C 45 % 985,4 hPa 0,0 l/m 0,0 km/h W 13,2 C 26,1 C 0,0 km/h
29.05.2014 12:00 22,9 C 48 % 985,4 hPa 0,0 l/m 7,1 km/h W 11,3 C 22,7 C 4,0 km/h
29.05.2014 13:00 21,6 C 49 % 985,3 hPa 0,0 l/m 0,0 km/h W-NW 10,4 C 21,6 C 0,0 km/h
29.05.2014 14:00 21,3 C 52 % 985,3 hPa 0,0 l/m 0,6 km/h NW 11,0 C 21,3 C 0,4 km/h
29.05.2014 15:00 23,6 C 47 % 985,3 hPa 0,0 l/m 9,7 km/h W-NW 11,6 C 22,7 C 5,4 km/h
29.05.2014 16:00 22,6 C 47 % 985,1 hPa 0,0 l/m 0,0 km/h S-SW 10,7 C 22,6 C 0,0 km/h
29.05.2014 17:00 16,3 C 72 % 985,3 hPa 0,3 l/m 0,0 km/h S 11,2 C 16,3 C 0,0 km/h
29.05.2014 18:00 16,6 C 73 % 985,5 hPa 0,0 l/m 16,2 km/h SO 11,7 C 12,8 C 9,0 km/h
29.05.2014 19:00 20,3 C 69 % 986,1 hPa 0,0 l/m 18,8 km/h SO 14,4 C 16,8 C 10,4 km/h
29.05.2014 20:00 17,0 C 72 % 986,4 hPa 0,0 l/m 0,0 km/h SO 11,9 C 17,0 C 0,0 km/h
29.05.2014 21:00 14,6 C 77 % 987,0 hPa 0,0 l/m 0,0 km/h SO 10,6 C 14,6 C 0,0 km/h
29.05.2014 22:00 13,6 C 81 % 987,5 hPa 0,0 l/m 0,0 km/h SO 10,4 C 13,6 C 0,0 km/h
29.05.2014 23:00 13,3 C 82 % 987,8 hPa 0,0 l/m 0,0 km/h O 10,3 C 13,3 C 0,0 km/h
30.05.2014 00:00 12,4 C 83 % 987,8 hPa 0,0 l/m 0,0 km/h O 9,6 C 12,4 C 0,0 km/h
30.05.2014 01:00 11,3 C 84 % 988,0 hPa 0,0 l/m 0,0 km/h SO 8,7 C 11,3 C 0,0 km/h
30.05.2014 02:00 10,4 C 84 % 988,0 hPa 0,0 l/m 0,0 km/h SO 7,8 C 10,4 C 0,0 km/h
30.05.2014 03:00 9,4 C 85 % 988,2 hPa 0,0 l/m 0,0 km/h SO 7,0 C 9,4 C 0,0 km/h
30.05.2014 04:00 9,3 C 85 % 988,1 hPa 0,0 l/m 0,0 km/h SO 6,9 C 9,3 C 0,0 km/h
30.05.2014 05:00 9,9 C 85 % 988,3 hPa 0,0 l/m 0,0 km/h SO 7,5 C 9,9 C 0,0 km/h
30.05.2014 06:00 11,2 C 84 % 988,4 hPa 0,0 l/m 0,0 km/h SO 8,6 C 11,2 C 0,0 km/h
30.05.2014 07:00 11,9 C 83 % 988,7 hPa 0,0 l/m 0,0 km/h SO 9,1 C 11,9 C 0,0 km/h
30.05.2014 08:00 13,2 C 83 % 988,8 hPa 0,0 l/m 0,0 km/h W-SW 10,4 C 13,2 C 0,0 km/h
30.05.2014 09:00 13,9 C 85 % 989,3 hPa 0,0 l/m 0,0 km/h W 11,4 C 13,9 C 0,0 km/h
30.05.2014 10:00 16,3 C 81 % 989,6 hPa 0,0 l/m 0,0 km/h W 13,0 C 16,3 C 0,0 km/h
30.05.2014 11:00 17,6 C 72 % 989,7 hPa 0,0 l/m 0,0 km/h W-NW 12,5 C 17,6 C 0,0 km/h
30.05.2014 12:00 19,1 C 67 % 989,8 hPa 0,0 l/m 4,5 km/h N-NO 12,8 C 19,1 C 2,5 km/h
30.05.2014 13:00 20,1 C 61 % 989,6 hPa 0,0 l/m 0,0 km/h N 12,3 C 20,1 C 0,0 km/h
30.05.2014 14:00 21,1 C 57 % 989,4 hPa 0,0 l/m 0,0 km/h N-NO 12,2 C 21,1 C 0,0 km/h
30.05.2014 15:00 21,7 C 53 % 989,4 hPa 0,0 l/m 0,0 km/h N-NO 11,7 C 21,7 C 0,0 km/h
30.05.2014 16:00 20,5 C 57 % 989,6 hPa 0,0 l/m 0,0 km/h N 11,7 C 20,5 C 0,0 km/h
30.05.2014 17:00 26,3 C 40 % 989,3 hPa 0,0 l/m 0,0 km/h N-NO 11,6 C 26,3 C 0,0 km/h
30.05.2014 18:00 24,8 C 38 % 989,3 hPa 0,0 l/m 5,2 km/h N-NW 9,5 C 24,8 C 2,9 km/h
30.05.2014 19:00 20,9 C 43 % 989,3 hPa 0,0 l/m 8,4 km/h N 7,8 C 20,2 C 4,7 km/h
30.05.2014 20:00 15,8 C 56 % 989,3 hPa 0,0 l/m 8,4 km/h N 7,0 C 14,7 C 4,7 km/h
30.05.2014 21:00 13,3 C 63 % 989,7 hPa 0,0 l/m 0,0 km/h SO 6,4 C 13,3 C 0,0 km/h
30.05.2014 22:00 10,3 C 72 % 990,5 hPa 0,0 l/m 0,0 km/h SO 5,5 C 10,3 C 0,0 km/h
30.05.2014 23:00 7,6 C 78 % 990,4 hPa 0,0 l/m 0,0 km/h SO 4,0 C 7,6 C 0,0 km/h
31.05.2014 00:00 7,0 C 82 % 990,9 hPa 0,0 l/m 0,0 km/h O-SO 4,1 C 7,0 C 0,0 km/h
31.05.2014 01:00 5,9 C 83 % 991,0 hPa 0,0 l/m 0,0 km/h O-SO 3,2 C 5,9 C 0,0 km/h
31.05.2014 02:00 5,8 C 84 % 990,8 hPa 0,0 l/m 0,0 km/h NO 3,3 C 5,8 C 0,0 km/h
31.05.2014 03:00 7,0 C 85 % 990,4 hPa 0,0 l/m 0,0 km/h N-NO 4,7 C 7,0 C 0,0 km/h
31.05.2014 04:00 6,6 C 85 % 990,5 hPa 0,0 l/m 0,0 km/h O-SO 4,3 C 6,6 C 0,0 km/h
31.05.2014 05:00 3,6 C 85 % 990,2 hPa 0,0 l/m 0,0 km/h O-SO 1,3 C 3,6 C 0,0 km/h
31.05.2014 06:00 2,9 C 85 % 990,5 hPa 0,0 l/m 0,0 km/h O-SO 0,6 C 2,9 C 0,0 km/h
31.05.2014 07:00 7,9 C 81 % 990,8 hPa 0,0 l/m 0,0 km/h W 4,8 C 7,9 C 0,0 km/h
31.05.2014 08:00 17,9 C 57 % 991,0 hPa 0,0 l/m 0,0 km/h NO 9,3 C 17,9 C 0,0 km/h
31.05.2014 09:00 20,8 C 45 % 991,0 hPa 0,0 l/m 0,0 km/h N-NW 8,4 C 20,8 C 0,0 km/h
31.05.2014 10:00 23,3 C 40 % 990,8 hPa 0,0 l/m 0,6 km/h O-SO 8,9 C 23,3 C 0,4 km/h
31.05.2014 11:00 23,8 C 40 % 990,8 hPa 0,0 l/m 0,0 km/h N-NO 9,4 C 23,8 C 0,0 km/h
31.05.2014 12:00 23,3 C 39 % 990,4 hPa 0,0 l/m 0,0 km/h NO 8,6 C 23,3 C 0,0 km/h
31.05.2014 13:00 24,9 C 37 % 990,0 hPa 0,0 l/m 9,1 km/h SO 9,2 C 24,2 C 5,0 km/h
31.05.2014 14:00 25,3 C 38 % 989,7 hPa 0,0 l/m 1,3 km/h O-SO 9,9 C 25,3 C 0,7 km/h
31.05.2014 15:00 26,2 C 34 % 989,6 hPa 0,0 l/m 0,0 km/h N-NO 9,1 C 26,2 C 0,0 km/h
31.05.2014 16:00 30,6 C 27 % 989,3 hPa 0,0 l/m 0,0 km/h O-NO 9,4 C 30,6 C 0,0 km/h
31.05.2014 17:00 27,4 C 31 % 989,3 hPa 0,0 l/m 0,0 km/h NO 8,8 C 27,4 C 0,0 km/h
31.05.2014 18:00 29,9 C 27 % 988,9 hPa 0,0 l/m 0,0 km/h O-NO 8,9 C 29,9 C 0,0 km/h
31.05.2014 19:00 26,4 C 31 % 989,3 hPa 0,0 l/m 1,9 km/h N-NO 7,9 C 26,4 C 1,1 km/h
31.05.2014 20:00 19,8 C 42 % 989,6 hPa 0,0 l/m 0,0 km/h N-NO 6,5 C 19,8 C 0,0 km/h
31.05.2014 21:00 16,1 C 49 % 989,8 hPa 0,0 l/m 0,0 km/h O-SO 5,4 C 16,1 C 0,0 km/h
31.05.2014 22:00 12,2 C 59 % 990,5 hPa 0,0 l/m 0,0 km/h SO 4,4 C 12,2 C 0,0 km/h
31.05.2014 23:00 11,8 C 68 % 990,6 hPa 0,0 l/m 0,0 km/h SO 6,1 C 11,8 C 0,0 km/h
01.06.2014 00:00 9,5 C 75 % 990,7 hPa 0,0 l/m 0,0 km/h N-NO 5,3 C 9,5 C 0,0 km/h
01.06.2014 01:00 10,1 C 75 % 990,6 hPa 0,0 l/m 0,0 km/h SO 5,9 C 10,1 C 0,0 km/h
01.06.2014 02:00 9,4 C 77 % 990,3 hPa 0,0 l/m 0,0 km/h O-NO 5,6 C 9,4 C 0,0 km/h
01.06.2014 03:00 9,2 C 78 % 990,1 hPa 0,0 l/m 0,0 km/h NO 5,6 C 9,2 C 0,0 km/h
01.06.2014 04:00 8,1 C 80 % 990,0 hPa 0,0 l/m 0,0 km/h O-NO 4,9 C 8,1 C 0,0 km/h
01.06.2014 05:00 7,5 C 82 % 990,4 hPa 0,0 l/m 0,0 km/h N-NO 4,6 C 7,5 C 0,0 km/h
01.06.2014 06:00 7,6 C 83 % 990,4 hPa 0,0 l/m 0,0 km/h SO 4,9 C 7,6 C 0,0 km/h
01.06.2014 07:00 10,8 C 83 % 990,4 hPa 0,0 l/m 0,0 km/h SO 8,0 C 10,8 C 0,0 km/h
01.06.2014 08:00 15,9 C 70 % 990,4 hPa 0,0 l/m 0,0 km/h NW 10,4 C 15,9 C 0,0 km/h
01.06.2014 09:00 16,5 C 63 % 990,6 hPa 0,0 l/m 0,0 km/h W 9,4 C 16,5 C 0,0 km/h
01.06.2014 10:00 18,1 C 60 % 990,4 hPa 0,0 l/m 0,0 km/h N-NW 10,2 C 18,1 C 0,0 km/h
01.06.2014 11:00 21,0 C 53 % 990,2 hPa 0,0 l/m 0,0 km/h N-NW 11,0 C 21,0 C 0,0 km/h
01.06.2014 12:00 24,0 C 45 % 989,7 hPa 0,0 l/m 0,6 km/h S 11,3 C 24,0 C 0,4 km/h
01.06.2014 13:00 25,8 C 39 % 989,2 hPa 0,0 l/m 8,4 km/h W-SW 10,8 C 25,4 C 4,7 km/h
01.06.2014 14:00 25,5 C 36 % 989,0 hPa 0,0 l/m 0,0 km/h N-NO 9,3 C 25,5 C 0,0 km/h
01.06.2014 15:00 29,0 C 32 % 988,7 hPa 0,0 l/m 0,0 km/h W-NW 10,6 C 29,0 C 0,0 km/h
01.06.2014 16:00 28,4 C 31 % 988,4 hPa 0,0 l/m 9,1 km/h N-NO 9,6 C 28,0 C 5,0 km/h
01.06.2014 17:00 31,1 C 27 % 988,0 hPa 0,0 l/m 5,2 km/h W-NW 9,9 C 31,1 C 2,9 km/h
01.06.2014 18:00 23,4 C 32 % 988,0 hPa 0,0 l/m 0,0 km/h N-NO 5,8 C 23,4 C 0,0 km/h
01.06.2014 19:00 21,3 C 40 % 987,9 hPa 0,0 l/m 3,2 km/h N-NW 7,1 C 21,3 C 1,8 km/h
01.06.2014 20:00 20,1 C 44 % 988,1 hPa 0,0 l/m 0,0 km/h O-NO 7,5 C 20,1 C 0,0 km/h
01.06.2014 21:00 15,9 C 57 % 988,5 hPa 0,0 l/m 0,0 km/h O-SO 7,4 C 15,9 C 0,0 km/h
01.06.2014 22:00 14,6 C 64 % 988,8 hPa 0,0 l/m 0,0 km/h O-SO 7,9 C 14,6 C 0,0 km/h
01.06.2014 23:00 14,3 C 70 % 989,1 hPa 0,0 l/m 0,0 km/h O-SO 8,9 C 14,3 C 0,0 km/h
Min-Datum _ 31.05.14 31.05.14 27.05.14 - 26.05.14 - 31.05.14 31.05.14 26.05.14
_ Min-Zeit 06:19 16:19 04:19 - 00:19 - 06:19 06:19 00:19
Minimum _ 2,9 C 27 % 982,3 hPa - 0,0 km/h - 0,6 C 2,9 C 0,0 km/h
Max-Datum _ 01.06.14 26.05.14 31.05.14 29.05.14 27.05.14 - 26.05.14 01.06.14 26.05.14
_ Max-Zeit 17:19 06:19 01:19 17:19 16:19 - 15:19 17:19 01:19
Maximum _ 31,1 C 85 % 991,0 hPa 0,3 l/m 20,7 km/h
W-NW
- 14,8 C 31,1 C 11,9 km/h
W
Durchschnitt _ 16,1 C 68 % 986,8 hPa #0,3 l/m 1,5 km/h SO 9,5 C 15,9 C 0,9 km/h
www.sexauwetter.de